Time;durP1;ratioP1;P1;durP2;ratioP2;P2;SDS_P1;SDS_P2;PMS_P1;PMS_P2;Temp;Humidity;BMP_temperature;BMP_pressure;BME280_temperature;BME280_humidity;BME280_pressure;Samples;Min_cycle;Max_cycle;Signal;HPM_P1;HPM_P2
2021/06/04 00:00:23;;;;;;;6.90;6.20;;;;;;;13.96;74.61;100067.34;4939821;29;20325;-83
2021/06/04 00:02:50;;;;;;;6.37;5.77;;;;;;;13.88;74.64;100051.50;4955929;28;20252;-86
2021/06/04 00:05:22;;;;;;;6.57;5.97;;;;;;;13.94;74.64;100062.19;4955769;28;20242;-86
2021/06/04 00:07:49;;;;;;;7.93;6.53;;;;;;;13.92;74.38;100061.59;4940032;29;20255;-81
2021/06/04 00:10:42;;;;;;;6.10;5.70;;;;;;;13.86;74.34;100059.81;4955432;28;20325;-86
2021/06/04 00:13:47;;;;;;;7.20;6.50;;;;;;;13.92;74.79;100058.91;4955511;29;20258;-88
2021/06/04 00:16:24;;;;;;;7.70;6.00;;;;;;;13.83;74.45;100056.75;4923176;28;20254;-85
2021/06/04 00:18:51;;;;;;;7.10;6.33;;;;;;;13.85;74.74;100058.19;4952371;28;20235;-81
2021/06/04 00:21:30;;;;;;;7.23;6.53;;;;;;;13.82;74.81;100064.03;4934095;28;20238;-86
2021/06/04 00:24:01;;;;;;;6.60;6.00;;;;;;;13.76;74.98;100051.50;4920541;29;20536;-80
2021/06/04 00:26:30;;;;;;;6.67;6.00;;;;;;;13.72;74.90;100050.28;4935200;29;20250;-81
2021/06/04 00:28:57;;;;;;;7.47;6.13;;;;;;;13.68;75.36;100052.63;4951173;28;20544;-84
2021/06/04 00:31:25;;;;;;;8.23;6.27;;;;;;;13.66;75.21;100051.22;4954474;28;20238;-83
2021/06/04 00:33:52;;;;;;;6.87;6.33;;;;;;;13.66;75.39;100065.50;4939980;28;20227;-82
2021/06/04 00:36:19;;;;;;;7.00;6.40;;;;;;;13.61;75.52;100046.53;4955268;28;20230;-84
2021/06/04 00:38:46;;;;;;;7.37;6.63;;;;;;;13.55;75.49;100041.22;4955817;28;20285;-84
2021/06/04 00:41:21;;;;;;;6.93;6.33;;;;;;;13.63;75.66;100049.78;4939990;29;20234;-85
2021/06/04 00:43:49;;;;;;;7.90;6.97;;;;;;;13.57;75.54;100037.28;4955769;28;20261;-86
2021/06/04 00:46:16;;;;;;;10.20;6.73;;;;;;;13.51;75.64;100030.09;4939350;28;20234;-85
2021/06/04 00:48:46;;;;;;;7.77;7.07;;;;;;;13.55;75.31;100043.91;4955459;28;20257;-84
2021/06/04 00:51:18;;;;;;;7.43;6.83;;;;;;;13.51;76.00;100046.25;4955704;28;20291;-80
2021/06/04 00:53:46;;;;;;;7.30;6.60;;;;;;;13.40;75.84;100035.44;4939427;28;20234;-86
2021/06/04 00:56:19;;;;;;;7.47;6.87;;;;;;;13.42;75.94;100047.63;4923990;28;20647;-80
2021/06/04 00:58:48;;;;;;;7.80;6.90;;;;;;;13.40;76.04;100040.81;4923812;29;20230;-86
2021/06/04 01:01:19;;;;;;;7.93;7.23;;;;;;;13.40;76.05;100047.00;4955171;28;20259;-86
2021/06/04 01:03:53;;;;;;;8.10;7.27;;;;;;;13.37;76.31;100047.47;4939420;28;20222;-80
2021/06/04 01:06:43;;;;;;;8.50;7.67;;;;;;;13.36;76.36;100045.00;4923290;28;20699;-87
2021/06/04 01:09:34;;;;;;;11.53;6.97;;;;;;;13.36;76.27;100050.38;4955014;28;20255;-82
2021/06/04 01:12:13;;;;;;;8.93;7.77;;;;;;;13.26;76.04;100037.47;4938594;29;20238;-80
2021/06/04 01:15:09;;;;;;;8.13;7.43;;;;;;;13.28;76.35;100045.34;4955291;28;20236;-81
2021/06/04 01:17:37;;;;;;;8.17;7.47;;;;;;;13.25;76.22;100045.78;4939353;28;20222;-85
2021/06/04 01:20:06;;;;;;;8.40;7.70;;;;;;;13.18;76.43;100054.75;4938411;29;20226;-82
2021/06/04 01:23:12;;;;;;;8.63;7.83;;;;;;;13.13;76.58;100046.53;4939048;29;20237;-83
2021/06/04 01:25:54;;;;;;;9.10;8.30;;;;;;;13.13;76.82;100043.84;4938865;29;20230;-83
2021/06/04 01:28:26;;;;;;;8.57;7.90;;;;;;;13.02;77.03;100039.19;4939454;28;20265;-83
2021/06/04 01:31:06;;;;;;;8.13;7.40;;;;;;;13.02;77.74;100049.13;4923128;29;20244;-80
2021/06/04 01:33:56;;;;;;;9.57;8.17;;;;;;;13.00;77.40;100046.69;4954554;28;20230;-85
2021/06/04 01:36:31;;;;;;;8.47;7.67;;;;;;;12.97;77.48;100040.94;4954384;28;20245;-85
2021/06/04 01:39:07;;;;;;;8.63;7.80;;;;;;;13.00;77.32;100044.00;4923045;29;20244;-84
2021/06/04 01:41:35;;;;;;;8.83;8.10;;;;;;;12.90;77.45;100041.00;4938328;29;20236;-86
2021/06/04 01:44:08;;;;;;;8.83;8.03;;;;;;;12.96;77.42;100052.72;4938477;28;20256;-83
2021/06/04 01:46:43;;;;;;;8.60;7.90;;;;;;;12.95;77.08;100046.53;4938512;29;20233;-81
2021/06/04 01:49:24;;;;;;;8.83;8.03;;;;;;;12.92;77.43;100043.47;4938390;28;20309;-83
2021/06/04 01:52:07;;;;;;;8.60;7.90;;;;;;;12.86;77.57;100045.19;4954524;28;20234;-84
2021/06/04 01:54:50;;;;;;;9.00;8.20;;;;;;;12.78;77.75;100035.53;4937945;29;20727;-84
2021/06/04 01:57:24;;;;;;;8.43;7.73;;;;;;;12.76;77.86;100028.75;4922698;29;20690;-84
2021/06/04 01:59:53;;;;;;;9.40;8.17;;;;;;;12.72;77.78;100035.63;4954290;28;20235;-81
2021/06/04 02:02:38;;;;;;;8.93;8.13;;;;;;;12.63;78.21;100029.72;4925196;28;20353;-82
2021/06/04 02:05:11;;;;;;;9.27;8.40;;;;;;;12.73;78.18;100048.84;4954287;28;20234;-85
2021/06/04 02:07:38;;;;;;;8.90;8.13;;;;;;;12.62;78.19;100033.44;4939062;28;20241;-82
2021/06/04 02:10:11;;;;;;;8.73;8.03;;;;;;;12.67;78.29;100047.06;4953340;28;20237;-80
2021/06/04 02:12:39;;;;;;;9.00;8.30;;;;;;;12.64;78.43;100050.19;4922146;29;20225;-80
2021/06/04 02:15:23;;;;;;;9.03;8.27;;;;;;;12.55;78.60;100039.97;4937856;29;20236;-84
2021/06/04 02:18:20;;;;;;;9.37;8.47;;;;;;;12.54;78.84;100043.69;4922879;29;20236;-84
2021/06/04 02:21:20;;;;;;;9.23;8.53;;;;;;;12.54;78.77;100049.88;4954085;28;20229;-82
2021/06/04 02:23:57;;;;;;;9.23;8.43;;;;;;;12.56;78.61;100049.63;4939383;28;20221;-80
2021/06/04 02:26:38;;;;;;;9.50;8.60;;;;;;;12.52;78.85;100049.25;4956046;28;20225;-81
2021/06/04 02:29:09;;;;;;;8.73;8.00;;;;;;;12.51;79.11;100052.16;4941091;28;20256;-79
2021/06/04 02:32:20;;;;;;;9.43;8.47;;;;;;;12.41;79.25;100035.75;4954833;28;20240;-82
2021/06/04 02:35:35;;;;;;;8.83;8.13;;;;;;;12.44;79.05;100054.94;4945776;28;20229;-79
2021/06/04 02:38:23;;;;;;;9.37;8.67;;;;;;;12.36;79.47;100050.66;4945411;28;20237;-81
2021/06/04 02:41:22;;;;;;;9.60;8.77;;;;;;;12.29;79.60;100044.53;4947804;28;20240;-82
2021/06/04 02:44:10;;;;;;;9.50;8.70;;;;;;;12.31;79.20;100052.38;4945256;28;20226;-81
2021/06/04 02:46:55;;;;;;;9.00;8.20;;;;;;;12.27;79.21;100046.59;4947591;28;20222;-82
2021/06/04 02:49:34;;;;;;;9.07;8.33;;;;;;;12.25;79.47;100056.75;4964841;28;20233;-80
2021/06/04 02:52:24;;;;;;;9.70;8.90;;;;;;;12.27;79.43;100051.19;4967068;28;20522;-79
2021/06/04 02:54:56;;;;;;;9.53;8.73;;;;;;;12.23;79.81;100049.94;4950207;28;20253;-80
2021/06/04 02:57:32;;;;;;;9.70;8.90;;;;;;;12.29;79.81;100071.41;4950897;28;20330;-80
2021/06/04 03:00:27;;;;;;;9.13;8.40;;;;;;;12.21;79.51;100060.94;4964928;28;20240;-79
2021/06/04 03:02:56;;;;;;;8.93;8.23;;;;;;;12.18;79.58;100057.84;4952091;29;20202;-80
2021/06/04 03:05:38;;;;;;;9.43;8.67;;;;;;;12.22;79.96;100067.97;4953012;28;20285;-80
2021/06/04 03:08:07;;;;;;;9.47;8.57;;;;;;;12.17;79.70;100065.09;4953948;28;20649;-78
2021/06/04 03:10:50;;;;;;;9.87;8.97;;;;;;;12.23;79.76;100074.13;4954187;28;20233;-81
2021/06/04 03:13:30;;;;;;;9.30;8.60;;;;;;;12.24;79.81;100078.47;4998320;23;20258;-81
2021/06/04 03:16:04;;;;;;;11.67;9.50;;;;;;;12.19;79.93;100072.91;5017274;23;20223;-81
2021/06/04 03:18:44;;;;;;;10.33;9.43;;;;;;;12.21;79.93;100086.97;4980460;28;20238;-81
2021/06/04 03:21:42;;;;;;;10.13;9.33;;;;;;;12.18;80.04;100072.09;5010475;28;20232;-81
2021/06/04 03:24:19;;;;;;;10.07;9.07;;;;;;;12.16;80.25;100074.19;5029073;23;20249;-80
2021/06/04 03:27:15;;;;;;;10.27;9.30;;;;;;;12.29;79.77;100089.38;5036068;28;20233;-80
2021/06/04 03:29:50;;;;;;;10.47;9.47;;;;;;;12.32;79.87;100087.06;5035351;28;20229;-81
2021/06/04 03:32:23;;;;;;;10.63;9.67;;;;;;;12.33;79.59;100080.66;5050924;28;20233;-81
2021/06/04 03:34:51;;;;;;;9.97;9.07;;;;;;;12.39;79.35;100076.28;5050808;28;20225;-80
2021/06/04 03:37:22;;;;;;;10.37;9.40;;;;;;;12.40;79.21;100079.78;5031274;28;20230;-79
2021/06/04 03:39:51;;;;;;;10.90;10.00;;;;;;;12.45;78.91;100074.56;5048956;28;20229;-79
2021/06/04 03:42:30;;;;;;;9.93;9.13;;;;;;;12.59;78.61;100084.16;5048324;28;20225;-81
2021/06/04 03:44:59;;;;;;;10.63;9.67;;;;;;;12.61;78.83;100087.44;5031768;28;20252;-81
2021/06/04 03:47:30;;;;;;;10.40;9.47;;;;;;;12.59;78.92;100078.78;5048233;28;20234;-81
2021/06/04 03:49:57;;;;;;;10.03;9.20;;;;;;;12.71;78.82;100085.06;5029800;28;20218;-79
2021/06/04 03:52:29;;;;;;;10.63;9.73;;;;;;;12.75;78.97;100083.56;5029329;28;20253;-81
2021/06/04 03:54:59;;;;;;;10.57;9.67;;;;;;;13.01;78.97;100082.47;5046867;28;20631;-82
2021/06/04 03:57:31;;;;;;;11.00;10.00;;;;;;;14.00;75.33;100080.09;5021542;28;20225;-81
2021/06/04 03:59:58;;;;;;;10.43;9.60;;;;;;;15.91;68.44;100067.56;5001771;28;20291;-86
2021/06/04 04:02:27;;;;;;;10.03;9.10;;;;;;;17.34;62.04;100093.78;5000723;28;20234;-83
2021/06/04 04:04:59;;;;;;;9.33;8.63;;;;;;;18.31;59.48;100077.44;5001784;28;20231;-85
2021/06/04 04:07:28;;;;;;;9.20;8.40;;;;;;;18.63;58.21;100067.41;5005466;28;20306;-83
2021/06/04 04:09:55;;;;;;;9.70;8.50;;;;;;;18.71;57.74;100082.41;5005365;28;20691;-84
2021/06/04 04:12:24;;;;;;;9.87;8.87;;;;;;;18.84;57.26;100080.03;5021139;28;20228;-81
2021/06/04 04:14:52;;;;;;;10.07;8.93;;;;;;;18.81;56.54;100075.09;5005155;28;20634;-86
2021/06/04 04:17:20;;;;;;;10.17;8.70;;;;;;;18.92;56.52;100073.28;5021085;28;20229;-83
2021/06/04 04:19:47;;;;;;;9.27;8.47;;;;;;;18.98;56.17;100077.66;5021373;28;20260;-83
2021/06/04 04:22:13;;;;;;;9.67;8.63;;;;;;;19.10;55.66;100070.09;5004284;28;20234;-83
2021/06/04 04:24:41;;;;;;;9.43;8.63;;;;;;;19.44;54.89;100073.28;5020857;28;20249;-82
2021/06/04 04:27:09;;;;;;;9.67;8.87;;;;;;;19.94;53.42;100080.72;5021031;28;20222;-82
2021/06/04 04:29:36;;;;;;;8.97;8.27;;;;;;;20.48;51.48;100115.63;5004683;28;20230;-83
2021/06/04 04:32:06;;;;;;;9.37;8.67;;;;;;;20.73;50.40;100098.41;5037814;28;20248;-81
2021/06/04 04:34:33;;;;;;;9.57;8.20;;;;;;;20.03;52.17;100070.94;5020789;28;20280;-83
2021/06/04 04:37:02;;;;;;;9.77;8.93;;;;;;;19.48;53.59;100068.94;5020421;28;20228;-82
2021/06/04 04:39:35;;;;;;;9.00;8.20;;;;;;;19.07;55.12;100081.50;4988402;28;20305;-86
2021/06/04 04:42:04;;;;;;;9.87;8.97;;;;;;;18.78;55.87;100082.97;5004017;28;20237;-83
2021/06/04 04:44:33;;;;;;;9.03;8.33;;;;;;;18.55;56.77;100077.94;5020644;28;20230;-85
2021/06/04 04:47:02;;;;;;;9.20;8.50;;;;;;;18.42;57.62;100068.31;5004255;28;20238;-80
2021/06/04 04:49:29;;;;;;;9.20;8.40;;;;;;;18.13;58.90;100070.53;4987945;28;20230;-85
2021/06/04 04:51:56;;;;;;;9.93;9.00;;;;;;;18.20;58.58;100068.41;5020546;28;20578;-79
2021/06/04 04:54:23;;;;;;;9.67;8.67;;;;;;;18.27;58.39;100076.34;5037526;28;20295;-84
2021/06/04 04:56:50;;;;;;;8.90;8.10;;;;;;;18.15;58.62;100068.34;5020310;28;20226;-83
2021/06/04 04:59:17;;;;;;;8.93;8.20;;;;;;;18.18;58.68;100073.28;5020531;28;20253;-83
2021/06/04 05:01:44;;;;;;;8.77;7.97;;;;;;;18.16;58.80;100061.88;5004301;28;20580;-82
2021/06/04 05:04:11;;;;;;;9.23;8.33;;;;;;;18.19;58.64;100061.38;5003448;28;20226;-85
2021/06/04 05:06:38;;;;;;;9.00;8.10;;;;;;;18.21;58.46;100061.91;5037865;28;20683;-85
2021/06/04 05:09:07;;;;;;;9.10;8.37;;;;;;;18.23;58.95;100075.22;5003683;28;20226;-84
2021/06/04 05:11:34;;;;;;;9.60;8.57;;;;;;;18.19;59.10;100077.63;5003802;28;20288;-85
2021/06/04 05:14:01;;;;;;;9.50;8.63;;;;;;;18.09;59.43;100079.44;5003451;28;20725;-84
2021/06/04 05:16:28;;;;;;;9.50;8.53;;;;;;;18.11;59.69;100072.66;5003100;28;20234;-84
2021/06/04 05:18:55;;;;;;;9.57;8.77;;;;;;;18.18;59.23;100084.13;5019845;28;20232;-80
2021/06/04 05:21:22;;;;;;;9.97;9.07;;;;;;;18.21;59.08;100075.47;5003929;28;20234;-85
2021/06/04 05:23:49;;;;;;;9.37;8.47;;;;;;;18.39;58.34;100075.06;5003607;28;20575;-83
2021/06/04 05:26:16;;;;;;;9.70;8.80;;;;;;;18.51;58.02;100074.91;5019395;28;20321;-82
2021/06/04 05:28:43;;;;;;;9.40;8.60;;;;;;;18.45;58.58;100074.03;5037232;28;20253;-85
2021/06/04 05:31:11;;;;;;;9.30;8.50;;;;;;;18.64;58.19;100074.47;5003506;28;20245;-86
2021/06/04 05:33:42;;;;;;;9.27;8.57;;;;;;;18.81;57.85;100088.69;5003259;28;20232;-84
2021/06/04 05:36:12;;;;;;;10.07;9.27;;;;;;;18.70;58.22;100089.72;4986711;28;20226;-81
2021/06/04 05:38:39;;;;;;;8.90;8.20;;;;;;;18.94;57.93;100092.03;5003273;28;20238;-85
2021/06/04 05:41:07;;;;;;;9.47;8.57;;;;;;;19.04;57.57;100089.34;5019284;28;20545;-80
2021/06/04 05:43:36;;;;;;;9.10;8.30;;;;;;;19.16;57.39;100089.97;5019659;28;20308;-80
2021/06/04 05:46:05;;;;;;;9.43;8.60;;;;;;;19.15;57.75;100097.28;5019066;28;20227;-85
2021/06/04 05:48:33;;;;;;;9.43;8.57;;;;;;;19.18;57.98;100102.19;5003172;28;20230;-84
2021/06/04 05:51:03;;;;;;;9.17;8.27;;;;;;;19.33;57.47;100093.28;5036361;28;20833;-84
2021/06/04 05:53:31;;;;;;;9.13;8.23;;;;;;;19.45;56.65;100085.78;5002731;28;20233;-84
2021/06/04 05:55:59;;;;;;;9.27;8.47;;;;;;;19.73;56.38;100100.81;5019285;28;20230;-88
2021/06/04 05:58:27;;;;;;;10.03;9.03;;;;;;;19.84;56.03;100091.56;5002804;28;20648;-87
2021/06/04 06:00:56;;;;;;;11.13;8.30;;;;;;;19.99;55.09;100098.94;5002892;28;20691;-86
2021/06/04 06:03:27;;;;;;;8.97;8.10;;;;;;;20.13;54.44;100089.16;5019044;28;20250;-88
2021/06/04 06:05:54;;;;;;;9.13;8.20;;;;;;;20.37;53.46;100094.91;5019127;28;20222;-80
2021/06/04 06:08:22;;;;;;;9.87;7.50;;;;;;;20.47;53.54;100090.28;5001322;28;20257;-86
2021/06/04 06:10:49;;;;;;;10.27;8.13;;;;;;;20.63;53.75;100094.63;4999929;28;20553;-87
2021/06/04 06:13:16;;;;;;;8.33;7.63;;;;;;;20.74;53.14;100089.97;5019129;28;20289;-81
2021/06/04 06:15:43;;;;;;;11.17;8.10;;;;;;;20.86;51.96;100098.66;5002373;28;20552;-84
2021/06/04 06:18:10;;;;;;;8.50;7.70;;;;;;;21.09;52.39;100106.22;5018569;28;20256;-85
2021/06/04 06:20:41;;;;;;;9.10;7.80;;;;;;;21.00;52.72;100097.00;4986897;28;20590;-85
2021/06/04 06:23:08;;;;;;;8.53;7.60;;;;;;;21.06;52.76;100090.44;5002523;28;20224;-86
2021/06/04 06:25:38;;;;;;;8.57;7.77;;;;;;;21.18;52.61;100100.25;5000247;28;20330;-86
2021/06/04 06:28:06;;;;;;;8.07;7.40;;;;;;;21.40;51.36;100096.06;5017947;28;20236;-85
2021/06/04 06:30:33;;;;;;;7.67;7.07;;;;;;;21.55;51.28;100100.66;5002490;28;20274;-82
2021/06/04 06:33:01;;;;;;;7.47;6.87;;;;;;;21.65;50.65;100080.69;5001839;28;20555;-81
2021/06/04 06:35:35;;;;;;;7.80;7.20;;;;;;;22.04;50.17;100102.56;4981792;28;20232;-84
2021/06/04 06:38:02;;;;;;;8.17;7.37;;;;;;;22.07;49.51;100085.63;4998235;28;20266;-82
2021/06/04 06:40:29;;;;;;;7.70;7.03;;;;;;;22.14;49.49;100084.22;5002239;28;20252;-86
2021/06/04 06:42:56;;;;;;;7.70;7.00;;;;;;;22.18;48.57;100082.53;5008792;28;20242;-86
2021/06/04 06:45:29;;;;;;;7.90;7.20;;;;;;;22.32;48.89;100088.16;4982890;28;20257;-88
2021/06/04 06:47:56;;;;;;;7.40;6.73;;;;;;;22.64;48.80;100102.06;4998559;28;20255;-87
2021/06/04 06:50:25;;;;;;;8.03;7.30;;;;;;;22.47;50.04;100104.41;4999344;28;20228;-87
2021/06/04 06:52:52;;;;;;;8.33;7.57;;;;;;;22.66;49.19;100101.78;5002036;28;20312;-85
2021/06/04 06:55:20;;;;;;;8.03;7.33;;;;;;;22.58;48.47;100099.69;5017881;28;20239;-85
2021/06/04 06:57:47;;;;;;;7.77;7.17;;;;;;;22.82;47.82;100098.63;5018156;28;20227;-87
2021/06/04 07:00:22;;;;;;;7.67;6.90;;;;;;;22.72;48.41;100106.13;5017666;28;20276;-87
2021/06/04 07:02:49;;;;;;;7.33;6.67;;;;;;;22.83;48.23;100097.53;5018367;28;20227;-88
2021/06/04 07:05:16;;;;;;;7.43;6.73;;;;;;;22.95;47.81;100086.22;5034059;28;20240;-87
2021/06/04 07:07:44;;;;;;;8.03;7.33;;;;;;;22.61;48.47;100091.72;5032152;28;20245;-81
2021/06/04 07:10:14;;;;;;;7.30;6.67;;;;;;;23.02;47.74;100100.34;4997763;28;20315;-84
2021/06/04 07:12:41;;;;;;;7.37;6.77;;;;;;;23.18;46.70;100085.41;4982174;28;20230;-85
2021/06/04 07:15:11;;;;;;;7.33;6.73;;;;;;;23.48;46.86;100100.63;4998430;28;20672;-87
2021/06/04 07:17:38;;;;;;;8.23;7.63;;;;;;;23.21;47.15;100095.75;4982312;28;20235;-87
2021/06/04 07:20:07;;;;;;;8.03;7.33;;;;;;;23.21;47.80;100093.00;4981712;28;20226;-87
2021/06/04 07:22:34;;;;;;;7.93;7.27;;;;;;;23.32;47.04;100093.72;4982062;28;20234;-87
2021/06/04 07:25:06;;;;;;;7.53;6.73;;;;;;;23.49;47.32;100096.78;5015108;28;20231;-82
2021/06/04 07:27:33;;;;;;;8.02;7.22;;;;;;;23.51;47.75;100089.13;4981471;28;20416;-80
2021/06/04 07:30:00;;;;;;;7.70;7.10;;;;;;;23.82;46.92;100094.97;4978913;28;20534;-87
2021/06/04 07:32:27;;;;;;;7.53;6.82;;;;;;;24.09;46.12;100086.09;4995270;28;20226;-87
2021/06/04 07:34:55;;;;;;;7.32;6.72;;;;;;;24.15;46.44;100098.59;4996760;28;20231;-87
2021/06/04 07:37:22;;;;;;;7.75;6.97;;;;;;;24.39;46.13;100082.91;4981422;28;20818;-85
2021/06/04 07:39:49;;;;;;;10.13;6.88;;;;;;;24.43;46.02;100083.91;4981337;28;20712;-82
2021/06/04 07:42:16;;;;;;;10.75;7.60;;;;;;;24.54;45.99;100084.56;4974933;28;20222;-84
2021/06/04 07:44:43;;;;;;;7.05;6.43;;;;;;;24.73;45.54;100079.81;5020918;28;20233;-87
2021/06/04 07:47:13;;;;;;;7.35;6.65;;;;;;;24.84;44.90;100086.72;5036870;28;20234;-86
2021/06/04 07:49:41;;;;;;;8.38;6.78;;;;;;;25.11;43.86;100090.63;5037180;28;20238;-86
2021/06/04 07:52:08;;;;;;;8.18;7.35;;;;;;;25.29;43.90;100096.00;5020273;28;20647;-85
2021/06/04 07:54:35;;;;;;;7.15;6.45;;;;;;;25.37;43.36;100089.00;5020869;28;20646;-86
2021/06/04 07:57:03;;;;;;;6.43;5.90;;;;;;;25.35;43.40;100086.56;5020679;28;20236;-81
2021/06/04 07:59:30;;;;;;;6.97;6.30;;;;;;;25.52;43.20;100082.41;5020210;28;20343;-85
2021/06/04 08:01:57;;;;;;;6.95;6.35;;;;;;;25.54;42.95;100083.72;5020810;28;20237;-85
2021/06/04 08:04:24;;;;;;;6.88;6.38;;;;;;;25.53;42.73;100082.06;5020019;28;20321;-86
2021/06/04 08:06:51;;;;;;;7.10;6.05;;;;;;;25.60;43.22;100087.19;5020410;28;20226;-83
2021/06/04 08:09:18;;;;;;;6.05;5.47;;;;;;;25.74;43.16;100075.06;5020728;28;20258;-88
2021/06/04 08:11:52;;;;;;;7.93;5.50;;;;;;;25.86;42.47;100094.53;5003949;28;20538;-84
2021/06/04 08:14:22;;;;;;;5.82;5.30;;;;;;;26.21;41.18;100083.88;5020034;28;20227;-88
2021/06/04 08:16:50;;;;;;;5.80;5.40;;;;;;;26.43;41.31;100077.53;5004418;28;20223;-87
2021/06/04 08:19:17;;;;;;;7.88;5.43;;;;;;;26.59;40.74;100065.88;5020314;28;20663;-85
2021/06/04 08:21:48;;;;;;;6.03;5.47;;;;;;;26.68;40.00;100058.47;5019390;28;20315;-79
2021/06/04 08:24:19;;;;;;;5.30;4.95;;;;;;;26.86;39.92;100059.38;5019996;28;20524;-87
2021/06/04 08:26:47;;;;;;;6.88;4.15;;;;;;;27.01;38.43;100067.22;5036696;28;20286;-81
2021/06/04 08:29:14;;;;;;;5.50;4.53;;;;;;;27.28;38.69;100063.41;5003745;28;20652;-87
2021/06/04 08:31:42;;;;;;;8.35;4.90;;;;;;;27.37;37.11;100053.25;5003589;28;20540;-87
2021/06/04 08:34:09;;;;;;;9.38;4.95;;;;;;;27.28;36.66;100054.34;5036011;28;20748;-83
2021/06/04 08:36:39;;;;;;;8.38;4.20;;;;;;;27.31;37.32;100056.44;5036182;28;20228;-86
2021/06/04 08:39:18;;;;;;;4.78;4.30;;;;;;;27.31;36.49;100060.00;5036971;28;20233;-86
2021/06/04 08:41:54;;;;;;;8.98;4.57;;;;;;;27.33;37.55;100052.25;5034648;28;20660;-85
2021/06/04 08:44:40;;;;;;;5.15;4.47;;;;;;;27.48;37.43;100067.50;4984381;28;20236;-85
2021/06/04 08:47:36;;;;;;;4.93;4.35;;;;;;;27.50;36.25;100065.25;4984719;28;20239;-84
2021/06/04 08:50:25;;;;;;;6.25;4.57;;;;;;;27.41;36.62;100056.97;4988283;28;20234;-87
2021/06/04 08:53:01;;;;;;;5.50;4.00;;;;;;;27.42;36.36;100060.53;4967544;28;20223;-86
2021/06/04 08:55:49;;;;;;;7.95;4.28;;;;;;;27.29;36.78;100058.72;5000472;28;20231;-84
2021/06/04 08:58:28;;;;;;;10.27;4.55;;;;;;;27.38;37.01;100060.38;4984047;28;20325;-85
2021/06/04 09:00:59;;;;;;;6.20;4.32;;;;;;;27.47;36.38;100060.38;5000290;28;20233;-82
2021/06/04 09:03:36;;;;;;;5.43;4.10;;;;;;;27.35;35.33;100044.47;4984418;28;20251;-87
2021/06/04 09:06:07;;;;;;;5.57;4.03;;;;;;;27.47;35.37;100052.13;5000048;28;20236;-85
2021/06/04 09:08:37;;;;;;;4.53;4.07;;;;;;;27.63;36.52;100055.22;4984470;28;20302;-81
2021/06/04 09:11:08;;;;;;;4.88;4.13;;;;;;;27.66;36.27;100063.69;4968153;28;20321;-81
2021/06/04 09:13:37;;;;;;;6.65;4.28;;;;;;;27.83;34.96;100062.88;5000511;28;20230;-83
2021/06/04 09:16:33;;;;;;;7.93;4.25;;;;;;;27.93;35.05;100057.84;4999666;28;20241;-81
2021/06/04 09:19:13;;;;;;;5.97;3.80;;;;;;;27.96;34.36;100053.63;5003199;28;20230;-85
2021/06/04 09:21:41;;;;;;;5.20;3.90;;;;;;;27.98;34.15;100043.94;4967895;28;20234;-82
2021/06/04 09:24:13;;;;;;;5.22;3.63;;;;;;;27.83;34.09;100041.66;4983617;28;20281;-81
2021/06/04 09:26:40;;;;;;;8.65;3.45;;;;;;;27.68;34.76;100030.31;5000025;28;20634;-85
2021/06/04 09:29:07;;;;;;;5.47;3.55;;;;;;;27.95;33.35;100038.25;5000093;28;20328;-81
2021/06/04 09:32:00;;;;;;;7.00;3.55;;;;;;;28.08;33.53;100040.03;5000033;28;20233;-85
2021/06/04 09:34:31;;;;;;;6.50;3.47;;;;;;;28.07;33.05;100030.16;4994368;28;20223;-86
2021/06/04 09:37:20;;;;;;;5.38;3.75;;;;;;;27.99;32.74;100033.72;4983661;28;20236;-85
2021/06/04 09:39:50;;;;;;;3.85;3.55;;;;;;;28.03;32.89;100030.00;4999813;28;20218;-84
2021/06/04 09:42:27;;;;;;;4.70;3.63;;;;;;;28.11;33.24;100039.41;4983333;28;20234;-85
2021/06/04 09:45:07;;;;;;;6.13;3.70;;;;;;;28.17;33.19;100029.84;4983798;28;20226;-86
2021/06/04 09:47:36;;;;;;;3.88;3.53;;;;;;;28.39;33.42;100031.56;4999780;28;20241;-82
2021/06/04 09:50:32;;;;;;;4.85;3.92;;;;;;;28.46;32.29;100034.66;5016590;28;20234;-83
2021/06/04 09:53:04;;;;;;;4.07;3.58;;;;;;;28.59;31.38;100021.78;4998269;28;20242;-81
2021/06/04 09:55:35;;;;;;;3.60;3.30;;;;;;;28.51;31.09;100039.19;4999187;28;20234;-85
2021/06/04 09:58:06;;;;;;;4.40;4.00;;;;;;;28.56;32.03;100028.75;4982863;28;20606;-85
2021/06/04 10:00:47;;;;;;;4.85;3.72;;;;;;;28.58;31.94;100015.47;4967044;28;20229;-82
2021/06/04 10:03:29;;;;;;;4.53;3.78;;;;;;;28.63;31.91;100020.00;4982975;28;20638;-81
2021/06/04 10:06:09;;;;;;;4.30;3.90;;;;;;;28.69;32.62;100010.41;4999244;28;20637;-82
2021/06/04 10:08:51;;;;;;;4.68;4.28;;;;;;;28.88;32.46;100021.88;4983073;28;20258;-84
2021/06/04 10:11:26;;;;;;;5.45;4.18;;;;;;;29.08;32.24;100006.50;4999272;28;20318;-85
2021/06/04 10:16:58;;;;;;;7.60;3.95;;;;;;;29.33;31.08;100013.84;5004328;28;20341;-81
2021/06/04 10:19:41;;;;;;;7.57;4.25;;;;;;;29.38;30.92;100008.13;5001149;28;20234;-81
2021/06/04 10:22:11;;;;;;;4.50;4.10;;;;;;;29.62;30.48;100019.31;4982645;28;20657;-82
2021/06/04 10:24:48;;;;;;;3.75;3.42;;;;;;;29.50;30.79;100010.97;4995507;28;20227;-84
2021/06/04 10:27:33;;;;;;;4.30;3.90;;;;;;;29.77;31.15;100003.28;4979601;28;20227;-83
2021/06/04 10:29:59;;;;;;;3.75;3.45;;;;;;;29.74;30.35;100011.09;4995427;28;20564;-87
2021/06/04 10:32:31;;;;;;;3.90;3.60;;;;;;;29.79;29.75;100010.06;4996312;28;20576;-86
2021/06/04 10:35:14;;;;;;;5.25;3.42;;;;;;;29.79;29.79;99993.50;4995342;28;20323;-86
2021/06/04 10:37:49;;;;;;;3.72;3.42;;;;;;;29.91;29.91;99990.81;4979331;28;20231;-87
2021/06/04 10:40:18;;;;;;;4.18;3.63;;;;;;;29.85;29.71;99991.34;4995216;28;20226;-84
2021/06/04 10:43:10;;;;;;;5.60;3.33;;;;;;;29.82;29.82;99992.00;5005617;28;20231;-86
2021/06/04 10:45:40;;;;;;;5.10;3.40;;;;;;;29.87;30.23;99980.75;5014898;28;20234;-83
2021/06/04 10:48:27;;;;;;;4.40;3.78;;;;;;;29.93;29.49;99984.97;4998106;28;20243;-85
2021/06/04 10:51:06;;;;;;;4.70;3.55;;;;;;;29.88;28.81;99972.16;4998627;28;20634;-85
2021/06/04 10:53:57;;;;;;;4.28;3.88;;;;;;;29.90;29.70;99988.41;4997620;28;20333;-82
2021/06/04 10:56:43;;;;;;;4.50;3.83;;;;;;;29.89;29.21;99984.84;4997457;28;20978;-81
2021/06/04 10:59:14;;;;;;;5.05;3.47;;;;;;;29.95;29.74;99975.22;4998512;28;20285;-84
2021/06/04 11:02:00;;;;;;;3.75;3.42;;;;;;;30.05;29.26;99980.28;5016039;28;20239;-84
2021/06/04 11:04:49;;;;;;;3.78;3.53;;;;;;;30.26;29.28;99976.66;4982060;28;20230;-84
2021/06/04 11:07:25;;;;;;;4.82;3.70;;;;;;;30.31;29.09;99981.97;5015700;28;20239;-84
2021/06/04 11:10:13;;;;;;;5.32;3.85;;;;;;;30.01;28.92;99982.13;5014589;28;20231;-82
2021/06/04 11:12:55;;;;;;;3.90;3.60;;;;;;;29.96;28.32;99973.22;5014240;28;20708;-84
2021/06/04 11:15:49;;;;;;;5.03;4.18;;;;;;;30.17;29.13;99990.56;5013523;28;20637;-85
2021/06/04 11:18:31;;;;;;;4.13;3.80;;;;;;;30.32;28.70;99961.47;4990293;28;20239;-85
2021/06/04 11:20:59;;;;;;;5.55;3.90;;;;;;;30.00;28.90;99946.56;4998039;28;20413;-83
2021/06/04 11:23:40;;;;;;;3.78;3.47;;;;;;;30.22;28.50;99971.00;5014220;28;20253;-85
2021/06/04 11:26:15;;;;;;;9.63;3.70;;;;;;;30.30;28.29;99953.53;4997783;28;20231;-82
2021/06/04 11:29:04;;;;;;;4.15;3.75;;;;;;;30.19;28.66;99963.38;5015446;28;20648;-85
2021/06/04 11:31:46;;;;;;;6.60;3.92;;;;;;;30.18;28.61;99968.13;4998086;28;20223;-85
2021/06/04 11:34:25;;;;;;;3.63;3.33;;;;;;;30.21;28.79;99955.56;5030285;28;20227;-83
2021/06/04 11:36:52;;;;;;;4.10;3.80;;;;;;;30.12;28.09;99955.69;5014121;28;20615;-82
2021/06/04 11:39:43;;;;;;;4.38;3.40;;;;;;;29.95;28.91;99957.81;4997978;28;20234;-82
2021/06/04 11:42:16;;;;;;;4.00;3.20;;;;;;;29.82;29.49;99945.06;5013789;28;20285;-81
2021/06/04 11:44:55;;;;;;;5.05;3.80;;;;;;;29.87;29.85;99945.66;4998005;28;20231;-85
2021/06/04 11:47:26;;;;;;;3.95;3.60;;;;;;;30.00;29.72;99935.50;5014068;28;20230;-85
2021/06/04 11:49:53;;;;;;;3.97;3.67;;;;;;;30.17;28.98;99941.66;4981842;28;20296;-83
2021/06/04 11:52:22;;;;;;;5.40;3.80;;;;;;;30.11;28.93;99933.91;4997407;28;20321;-83
2021/06/04 11:54:49;;;;;;;4.57;3.80;;;;;;;30.13;28.79;99920.56;4997957;28;20234;-85
2021/06/04 11:57:25;;;;;;;4.93;3.65;;;;;;;30.31;29.12;99940.50;4997497;28;20669;-82